Hartford, Connecticut
Traffic Map
Current Weather Conditions
Hartford, Connecticut
Clear
Clear
74°
Feels Like: 74°
Wind Chill: 74° Ceiling: Unl
Heat Index: 74° Visibility: 7mi
Dew Point: 72° Wind: 5mph
Humidity: 93% Direction: 190° (S)
Pressure: 29.88in Gusts: 0mph
Raw Report DataKHFD 300953Z AUTO 19004KT 7SM CLR 23/22 A2988 RMK AO2 SLP119 T02330222
Traffic Incident Summary
Active as of:
Severity:
Category:
InformationThere was an issue retrieving the traffic information for this location. Please try a different location or try again shortly.
Advertisements
Track Severe Weather on mobile